x

West Gulf - 207 Nm East Of Brownsville, Tx (42002) Wave Buoy

6:50pm - Mon 28th Jul 2014 All times are CDT. -5 hours from GMT.

  • Sig Wave height 1.3ft
  • Swell Direction
  • Peak Period 5s
  • Average Period 5s
  • Wind
  • Sea Temp 89°f
  • Air Temp 85°f
  • Sea Pressure 1017.5mb
  • West Gulf - 207 Nm East Of Brownsville, Tx
  • West Gulf - 207 Nm East Of Brownsville, Tx

More Historic Weather Station data

Upgrade to MSW Pro to gain access to the past 30 days of data for over 8000 Wavebouys and Weather Stations around the globe.

Join Pro

Comparision Forecast

View Surf forecast
   
Mon 07/28 6:50pm 1.3ft 5s 5s  -  2 mph 1017.5mb 89f 85f
5:50pm 1.3ft 5s 5s 2 4 mph 1017.9mb 89f 85f
4:50pm 1.3ft 5s 5s 2 4 mph 1018.2mb 90f 85f
3:50pm 1.3ft 5s 4s 4
mph
1018.7mb 91f 85f
2:50pm 1.3ft 5s 4s 4 7 mph 1019.4mb 91f 85f
1:50pm 1.3ft 5s 4s 2 7 mph 1019.9mb 89f 84f
12:50pm 1.3ft 5s 4s 2 4 mph 1020.4mb 88f 84f
11:50am 1.3ft 5s 4s 4 7 mph 1020.4mb 88f 84f
10:50am 1.3ft 5s 4s 4
mph
1020.4mb 87f 84f
9:50am 1.3ft 5s 4s 2 4 mph 1020.2mb 86f 84f
8:50am 1.3ft 5s 4s  -  2 mph 1019.7mb 85f 84f
7:50am 1.3ft 5s 4s 2 4 mph 1019.2mb 85f 84f
6:50am 1.3ft 5s 4s 4 7 mph 1018.8mb 85f 84f
5:50am 1.3ft 5s 4s 4 7 mph 1018.2mb 85f 84f
4:50am 1.6ft 5s 4s 4 7 mph 1017.9mb 86f 84f
3:50am 1.3ft 5s 4s 9 13 mph 1017.6mb 86f 84f
2:50am 1.6ft 5s 4s 9
mph
1017.9mb 86f 84f
1:50am 1.6ft 5s 4s 9 11 mph 1018.1mb 86f 85f
12:50am 1.6ft 5s 4s 9 11 mph 1018.5mb 86f 85f
Sun 07/27 11:50pm 1.6ft 5s 4s 9 11 mph 1018.7mb 86f 85f
10:50pm 1.3ft 5s 4s 9 11 mph 1018.7mb 86f 85f
9:50pm 1.3ft 5s 4s 9 11 mph 1018.5mb 86f 85f
8:50pm 1.3ft 5s 4s 9 11 mph 1017.9mb 86f 85f
7:50pm 1.6ft 5s 4s 7 9 mph 1017.7mb 87f 85f
6:50pm 1.6ft 5s 4s 7
mph
1017.7mb 87f 85f
5:50pm 1.6ft 5s 4s 4
mph
1017.7mb 87f 85f
4:50pm 1.6ft 5s 4s 7 9 mph 1017.9mb 87f 85f
3:50pm 1.6ft 5s 4s 7 9 mph 1018.3mb 87f 85f
2:50pm 1.6ft 6s 4s 9
mph
1018.7mb 86f 85f
1:50pm 2ft 6s 4s 9 11 mph 1019mb 86f 85f
12:50pm 2ft 5s 4s 11 13 mph 1019.2mb 86f 85f
11:50am 2ft 5s 4s 11 13 mph 1019.3mb 86f 85f
10:50am 2ft 5s 4s 13 16 mph 1018.9mb 85f 84f
9:50am 1.6ft 5s 4s 13 16 mph 1018.8mb 85f 85f
8:50am 1.6ft 5s 4s 13 16 mph 1018.5mb 85f 85f
7:50am 2ft 5s 4s 11 13 mph 1018.3mb 85f 84f
6:50am 2ft 5s 4s 9 13 mph 1017.7mb 85f 84f
5:50am 2ft 5s 4s 9 11 mph 1017.5mb 85f 84f
4:50am 2ft 5s 4s 11 13 mph 1017.2mb 85f 84f
3:50am 2ft 4s 4s 11 13 mph 1017.3mb 85f 85f
2:50am 2ft 5s 4s 13 16 mph 1017.4mb 86f 84f
1:50am 1.6ft 5s 4s 11 16 mph 1017.5mb 86f 84f
12:50am 1.6ft 5s 4s 13 16 mph 1017.6mb 86f 84f
Sat 07/26 11:50pm 1.6ft 5s 4s 11 13 mph 1017.8mb 86f 85f
10:50pm 1.6ft 5s 4s 11 13 mph 1017.8mb 85f 85f
9:50pm 1.6ft 5s 4s 9 11 mph 1017.4mb 86f 85f
8:50pm 1.6ft 5s 4s 9 11 mph 1016.9mb 86f 85f
7:50pm 1.6ft 4s 4s 9 11 mph 1016.8mb 86f 85f
6:50pm 1.6ft 5s 4s 11
mph
1016.6mb 86f 85f
5:50pm 1.6ft 4s 4s 9 13 mph 1016.9mb 86f 85f
4:50pm 2ft 4s 4s 11 13 mph 1017.1mb 86f 85f
3:50pm 1.6ft 4s 3s 13 16 mph 1017.4mb 86f 85f
2:50pm 1.6ft 4s 4s 11 13 mph 1017.9mb 86f 85f
1:50pm 1.6ft 4s 4s 11 13 mph 1018.6mb 86f 85f
12:50pm 1.6ft 4s 4s 11
mph
1019.1mb 86f 85f
11:50am 1.6ft 4s 4s 13 18 mph 1019.2mb 85f 84f
10:50am 1.6ft 4s 4s 4 7 mph 1018.8mb 86f 85f
9:50am 1.6ft 4s 4s 9
mph
1018.7mb 85f 85f
8:50am 1.6ft 3s 3s 9 11 mph 1017.9mb 85f 85f
7:50am 1.6ft 3s 3s 9 11 mph 1017.3mb 85f 84f
6:50am 1.6ft 3s 3s 9 11 mph 1016.6mb 85f 84f
5:50am 1.6ft 4s 3s 13 16 mph 1015.9mb 85f 84f
4:50am 1.6ft 3s 3s 13 16 mph 1015.8mb 85f 84f
3:50am 1.3ft 3s 3s 13 16 mph 1016mb 85f 84f
2:50am 1.3ft 4s 3s 13 16 mph 1016.3mb 85f 84f
1:50am 1.3ft 4s 3s 11 13 mph 1017mb 85f 84f
12:50am 1.3ft 4s 4s 11 13 mph 1017.5mb 86f 84f
Fri 07/25 11:50pm 1ft 4s 4s 9 11 mph 1017.7mb 86f 85f
10:50pm 1.3ft 9s 4s 7 11 mph 1017.6mb 86f 85f
9:50pm 1.3ft 9s 4s 9 11 mph 1016.8mb 86f 85f
8:50pm 1.3ft 8s 4s 7 9 mph 1016.6mb 86f 84f
7:50pm 1.3ft 9s 4s 7 9 mph 1016.1mb 86f 84f
6:50pm 1.3ft 8s 4s 7 9 mph 1016mb 86f 84f
5:50pm 1ft 9s 4s 11 13 mph 1016.1mb 86f 84f
4:50pm 1ft 9s 4s 7 9 mph 1016.4mb 86f 85f
3:50pm 1ft 9s 4s 4 7 mph 1016.8mb 86f 85f
2:50pm 1ft 8s 4s 7
mph
1017.2mb 86f 85f
1:50pm 1ft 9s 4s 7 9 mph 1017.5mb 86f 85f
12:50pm 1ft 10s 4s 9 11 mph 1017.9mb 85f 84f
11:50am 1ft 9s 4s 7 9 mph 1018.4mb 85f 84f
10:50am 1ft 10s 4s 7
mph
1018mb 85f 84f
9:50am 1ft 10s 4s 7 9 mph 1017.7mb 85f 84f
8:50am 1ft 9s 4s 7 9 mph 1017.1mb 85f 84f
7:50am 1ft 8s 4s 9 11 mph 1016.7mb 85f 84f
6:50am 1ft 8s 4s 9 11 mph 1016.1mb 85f 83f
5:50am 1ft 9s 3s 9 11 mph 1015.9mb 85f 84f
4:50am 1ft 8s 3s 11 13 mph 1015.7mb 85f 83f
3:50am 1ft 8s 4s 11 13 mph 1015.9mb 85f 84f
2:50am 1ft 8s 4s 11 13 mph 1016.3mb 85f 84f
1:50am 1ft 8s 5s 11
mph
1016.5mb 85f 84f